Time;durP1;ratioP1;P1;durP2;ratioP2;P2;SDS_P1;SDS_P2;PMS_P1;PMS_P2;Temp;Humidity;BMP_temperature;BMP_pressure;BME280_temperature;BME280_humidity;BME280_pressure;Samples;Min_cycle;Max_cycle;Signal;HPM_P1;HPM_P2
2022/02/09 00:10:04;;;;;;;2.00;1.10;;;;;;;0.36;62.44;98048.41;5032599;28;20041;-61
2022/02/09 00:13:09;;;;;;;2.42;1.00;;;;;;;0.32;62.31;98052.41;5033009;28;20040;-59
2022/02/09 00:36:19;;;;;;;1.55;1.10;;;;;;;0.18;61.94;98050.84;5031093;28;20045;-60
2022/02/09 01:38:43;;;;;;;0.93;0.90;;;;;;;0.61;58.34;98055.56;5031069;28;20044;-61
2022/02/09 01:57:01;;;;;;;1.27;1.20;;;;;;;0.64;59.52;98052.53;5030371;28;20040;-60
2022/02/09 01:59:27;;;;;;;0.95;0.90;;;;;;;0.70;59.41;98062.13;5031002;28;20076;-61
2022/02/09 02:01:53;;;;;;;1.67;1.00;;;;;;;0.79;59.32;98054.88;5033152;28;20599;-61
2022/02/09 02:04:23;;;;;;;1.13;1.02;;;;;;;0.79;58.67;98057.50;5042755;28;20049;-61
2022/02/09 02:06:51;;;;;;;0.90;0.90;;;;;;;0.74;59.03;98060.72;5030242;28;20115;-60
2022/02/09 02:09:17;;;;;;;0.82;0.82;;;;;;;0.63;59.88;98059.56;5029786;28;20054;-60
2022/02/09 02:11:50;;;;;;;1.10;0.98;;;;;;;0.63;59.53;98051.72;5012846;28;20604;-60
2022/02/09 02:19:31;;;;;;;1.98;0.98;;;;;;;0.49;60.95;98058.00;5029387;28;20041;-62
2022/02/09 02:25:06;;;;;;;1.30;1.17;;;;;;;0.43;60.91;98064.81;5039333;28;20046;-60
2022/02/09 02:38:19;;;;;;;1.60;1.50;;;;;;;0.44;61.24;98073.44;5034772;28;20043;-61
2022/02/09 02:46:46;;;;;;;2.25;1.80;;;;;;;0.48;60.93;98076.47;5054097;28;20052;-60
2022/02/09 02:57:42;;;;;;;3.17;1.83;;;;;;;0.61;61.75;98077.22;5033892;28;20048;-60
2022/02/09 03:23:56;;;;;;;5.03;2.20;;;;;;;0.46;62.24;98074.03;5033614;28;20051;-60
2022/02/09 03:42:40;;;;;;;5.20;2.45;;;;;;;0.49;62.98;98080.66;5018243;28;20054;-60
2022/02/09 03:58:41;;;;;;;5.18;2.25;;;;;;;0.42;63.29;98080.69;5051651;28;20136;-60
2022/02/09 04:01:07;;;;;;;3.28;2.33;;;;;;;0.43;63.92;98079.66;5035125;28;20153;-60
2022/02/09 04:03:33;;;;;;;3.42;2.20;;;;;;;0.42;63.70;98084.09;5040636;28;20084;-63
2022/02/09 04:05:58;;;;;;;2.33;1.92;;;;;;;0.35;63.78;98080.66;5038896;28;20439;-60
2022/02/09 04:08:29;;;;;;;3.55;2.35;;;;;;;0.29;63.39;98078.88;5033042;28;20049;-59
2022/02/09 04:11:18;;;;;;;2.92;2.33;;;;;;;0.28;63.27;98082.50;5032894;28;20045;-61
2022/02/09 04:13:55;;;;;;;2.95;2.30;;;;;;;0.27;63.35;98074.91;5031440;28;20052;-60
2022/02/09 04:19:11;;;;;;;2.05;1.85;;;;;;;0.17;61.13;98072.69;5032784;28;20483;-61
2022/02/09 04:38:18;;;;;;;1.55;1.33;;;;;;;0.25;58.72;98080.31;5032178;28;20518;-60
2022/02/09 04:46:04;;;;;;;3.40;2.30;;;;;;;0.32;58.80;98083.69;5031769;28;20107;-61
2022/02/09 04:49:05;;;;;;;1.80;1.42;;;;;;;0.38;58.67;98089.91;5032408;28;20045;-60
2022/02/09 04:57:16;;;;;;;2.20;1.60;;;;;;;0.37;58.86;98083.09;5037454;28;20053;-61
2022/02/09 04:59:55;;;;;;;2.25;1.80;;;;;;;0.38;59.64;98089.91;5050305;28;20530;-61
2022/02/09 05:26:36;;;;;;;3.75;1.98;;;;;;;0.63;58.67;98090.84;5030986;28;20042;-61
2022/02/09 05:29:02;;;;;;;3.25;1.70;;;;;;;0.68;57.68;98098.88;5030972;28;20107;-60
2022/02/09 05:31:28;;;;;;;3.13;1.90;;;;;;;0.72;57.64;98091.44;5030775;28;20407;-59
2022/02/09 05:33:54;;;;;;;2.03;1.55;;;;;;;0.70;58.35;98090.81;5031537;28;20048;-61
2022/02/09 05:36:20;;;;;;;2.28;1.73;;;;;;;0.71;58.51;98096.84;5046351;28;20110;-61
2022/02/09 05:38:45;;;;;;;2.83;1.80;;;;;;;0.73;58.18;98098.25;5033350;28;20048;-60
2022/02/09 05:41:11;;;;;;;2.40;1.88;;;;;;;0.76;58.10;98090.00;5041340;28;20077;-62
2022/02/09 05:43:38;;;;;;;1.55;1.42;;;;;;;0.76;57.91;98089.19;5039402;28;20084;-59
2022/02/09 05:46:47;;;;;;;2.22;1.70;;;;;;;0.68;57.50;98079.81;5050552;28;20454;-60
2022/02/09 05:51:54;;;;;;;2.67;1.77;;;;;;;0.63;57.75;98092.66;5031972;28;20678;-61
2022/02/09 05:59:48;;;;;;;2.13;1.88;;;;;;;0.78;57.73;98110.69;5011280;28;20041;-61
2022/02/09 06:02:19;;;;;;;2.67;2.05;;;;;;;0.86;57.94;98110.47;5040733;28;20061;-60
2022/02/09 06:04:45;;;;;;;;;;;;;;;0.88;57.59;98116.25;5031227;28;20561;-61
2022/02/09 06:07:13;;;;;;;2.08;1.88;;;;;;;0.92;58.13;98114.84;5032268;28;19925;-62
2022/02/09 06:09:39;;;;;;;2.17;1.90;;;;;;;0.99;58.14;98110.38;5033951;28;20398;-60
2022/02/09 06:14:56;;;;;;;2.85;1.88;;;;;;;1.01;57.46;98116.22;5031914;28;20033;-61
2022/02/09 06:20:17;;;;;;;2.22;1.80;;;;;;;1.11;56.82;98111.34;5036164;28;20036;-61
2022/02/09 06:22:42;;;;;;;2.20;1.80;;;;;;;1.18;57.64;98113.94;5024341;28;20056;-61
2022/02/09 06:25:09;;;;;;;2.33;1.90;;;;;;;1.22;57.42;98107.28;5030090;28;20033;-61
2022/02/09 06:27:35;;;;;;;2.22;1.60;;;;;;;1.30;56.71;98122.72;5033947;28;20392;-61
2022/02/09 06:30:01;;;;;;;3.67;2.10;;;;;;;1.20;57.24;98126.78;5025311;28;20048;-64
2022/02/09 06:32:28;;;;;;;2.60;2.40;;;;;;;1.24;57.66;98126.16;5012160;28;20060;-61
2022/02/09 06:34:57;;;;;;;2.95;2.00;;;;;;;1.23;57.59;98132.38;5024900;28;20041;-62
2022/02/09 06:37:35;;;;;;;5.32;2.78;;;;;;;1.17;58.00;98130.59;5040309;28;20114;-62
2022/02/09 06:40:01;;;;;;;9.35;2.95;;;;;;;1.17;58.85;98135.00;5049401;28;20029;-61
2022/02/09 06:42:30;;;;;;;4.78;2.95;;;;;;;1.22;58.87;98137.81;5045294;28;20052;-62
2022/02/09 06:45:03;;;;;;;4.25;2.70;;;;;;;1.31;58.92;98139.19;5050851;28;20052;-62
2022/02/09 06:47:29;;;;;;;5.88;3.30;;;;;;;1.50;58.26;98137.47;5029975;28;20045;-62
2022/02/09 06:50:05;;;;;;;3.75;3.10;;;;;;;1.44;58.19;98139.13;5030530;28;20092;-60
2022/02/09 06:52:31;;;;;;;6.15;3.42;;;;;;;1.48;59.24;98148.13;5035452;28;20041;-63
2022/02/09 06:57:45;;;;;;;3.65;2.85;;;;;;;1.36;59.28;98144.59;5045071;28;20040;-62
2022/02/09 07:00:11;;;;;;;5.28;2.90;;;;;;;1.47;59.20;98143.09;5050233;28;20395;-61
2022/02/09 07:02:41;;;;;;;5.32;3.10;;;;;;;1.55;59.13;98148.09;5030640;28;20060;-61
2022/02/09 07:05:16;;;;;;;6.22;3.75;;;;;;;1.54;59.35;98151.72;5034616;28;20056;-62
2022/02/09 07:07:42;;;;;;;5.82;3.38;;;;;;;1.62;59.29;98151.47;5051753;28;20045;-62
2022/02/09 07:10:10;;;;;;;6.35;3.15;;;;;;;1.81;59.31;98154.97;5038398;28;20065;-61
2022/02/09 07:12:38;;;;;;;5.82;3.78;;;;;;;1.88;58.69;98160.94;5027879;28;20064;-62
2022/02/09 07:15:07;;;;;;;6.72;3.78;;;;;;;1.77;58.63;98156.41;5049644;28;20033;-61
2022/02/09 07:17:32;;;;;;;6.15;3.40;;;;;;;1.67;58.81;98156.84;5051107;28;20044;-61
2022/02/09 07:20:10;;;;;;;6.63;3.17;;;;;;;1.64;59.11;98159.88;5038465;28;20513;-62
2022/02/09 07:22:37;;;;;;;6.50;3.42;;;;;;;1.57;58.91;98149.50;5011320;28;20507;-62
2022/02/09 07:25:12;;;;;;;4.97;3.28;;;;;;;1.49;58.88;98159.38;5030130;28;20099;-63
2022/02/09 07:27:52;;;;;;;6.10;3.40;;;;;;;1.35;59.64;98162.06;5041745;28;20079;-64
2022/02/09 07:30:22;;;;;;;4.60;3.27;;;;;;;1.12;60.01;98161.75;5050738;28;20036;-63
2022/02/09 07:33:01;;;;;;;5.00;3.35;;;;;;;1.09;60.25;98154.34;5050956;28;20060;-62
2022/02/09 07:35:28;;;;;;;6.72;3.88;;;;;;;1.00;60.51;98158.97;5035201;28;20037;-63
2022/02/09 07:37:54;;;;;;;5.22;3.00;;;;;;;0.79;60.74;98157.41;5046611;28;20106;-63
2022/02/09 07:40:21;;;;;;;5.60;3.30;;;;;;;0.81;61.05;98171.06;5036837;28;20041;-62
2022/02/09 07:42:54;;;;;;;6.10;3.30;;;;;;;0.71;61.09;98168.09;5043677;28;20041;-62
2022/02/09 07:45:57;;;;;;;7.32;3.40;;;;;;;0.53;61.64;98171.31;5009180;28;20045;-62
2022/02/09 07:51:55;;;;;;;7.55;3.60;;;;;;;0.54;61.08;98172.91;5025656;28;20044;-62
2022/02/09 07:53:50;;;;;;;4.70;3.28;;;;;;;0.65;60.89;98163.69;5018289;28;20065;-62
2022/02/09 07:56:17;;;;;;;5.00;3.08;;;;;;;0.74;60.89;98170.28;5027418;28;20054;-62
2022/02/09 07:58:43;;;;;;;4.75;3.17;;;;;;;0.74;59.81;98167.69;5029484;28;20037;-62
2022/02/09 08:01:09;;;;;;;4.97;3.33;;;;;;;0.79;59.66;98167.03;5028774;28;20065;-61
2022/02/09 08:03:36;;;;;;;4.20;2.80;;;;;;;0.78;58.31;98174.06;5028716;28;20061;-62
2022/02/09 08:06:03;;;;;;;3.60;2.90;;;;;;;0.82;57.72;98170.03;5031540;28;20507;-62
2022/02/09 08:08:31;;;;;;;5.45;2.60;;;;;;;0.82;57.70;98172.66;5029804;28;20064;-62
2022/02/09 08:11:09;;;;;;;4.32;2.50;;;;;;;0.82;57.33;98171.84;5031046;28;20061;-61
2022/02/09 08:30:18;;;;;;;3.90;2.60;;;;;;;1.01;56.07;98168.41;5029320;28;20069;-62
2022/02/09 08:32:39;;;;;;;4.72;2.70;;;;;;;1.07;55.10;98167.59;5025202;28;20076;-62
2022/02/09 08:35:05;;;;;;;3.85;2.20;;;;;;;1.12;54.94;98162.56;5029319;28;20080;-62
2022/02/09 08:37:31;;;;;;;5.10;2.60;;;;;;;1.27;54.39;98166.72;5030320;28;20042;-62
2022/02/09 08:39:57;;;;;;;4.07;2.55;;;;;;;1.44;54.12;98162.63;5029703;28;20052;-63
2022/02/09 08:42:24;;;;;;;2.70;2.28;;;;;;;1.54;54.23;98176.03;5028393;28;20123;-63
2022/02/09 08:44:50;;;;;;;3.05;2.40;;;;;;;1.49;53.39;98170.63;5011672;28;20048;-62
2022/02/09 08:47:19;;;;;;;3.35;2.30;;;;;;;1.52;53.63;98166.78;5028445;28;20045;-62
2022/02/09 08:49:45;;;;;;;3.55;2.47;;;;;;;1.51;53.76;98170.41;5027343;28;20049;-62
2022/02/09 08:52:11;;;;;;;7.25;2.80;;;;;;;1.57;53.41;98178.22;5011185;28;20042;-62
2022/02/09 08:54:36;;;;;;;3.58;2.67;;;;;;;1.53;53.05;98174.44;5025919;28;20055;-61
2022/02/09 08:57:08;;;;;;;3.47;2.35;;;;;;;1.64;53.05;98177.38;5028734;28;20042;-63
2022/02/09 08:59:35;;;;;;;2.58;2.13;;;;;;;1.66;52.43;98185.81;5030174;28;20041;-62
2022/02/09 09:02:05;;;;;;;4.53;2.35;;;;;;;1.70;52.45;98179.94;5028148;28;20064;-63
2022/02/09 09:04:38;;;;;;;2.10;1.90;;;;;;;1.63;52.81;98183.63;5027871;28;20095;-62
2022/02/09 09:07:10;;;;;;;4.43;2.10;;;;;;;1.75;52.84;98182.75;5029092;28;20063;-61
2022/02/09 10:34:16;;;;;;;3.58;2.40;;;;;;;3.11;51.23;98168.09;5048585;28;20063;-60
2022/02/09 10:36:50;;;;;;;4.45;2.60;;;;;;;3.01;52.38;98159.97;5033138;28;20124;-60
2022/02/09 10:39:22;;;;;;;3.17;2.53;;;;;;;2.88;52.31;98155.69;5012090;28;20081;-61
2022/02/09 10:46:20;;;;;;;3.78;2.33;;;;;;;2.34;54.09;98161.63;5045938;28;20080;-60
2022/02/09 10:48:58;;;;;;;3.38;2.35;;;;;;;2.16;56.83;98155.31;5046707;28;20132;-60
2022/02/09 10:54:14;;;;;;;5.15;2.35;;;;;;;2.19;56.23;98162.75;5047917;28;20559;-61
2022/02/09 10:56:48;;;;;;;4.35;2.88;;;;;;;2.15;55.71;98158.16;5044686;28;20472;-61
2022/02/09 10:59:16;;;;;;;5.82;2.47;;;;;;;2.19;55.83;98156.72;5032062;28;20038;-61
2022/02/09 11:01:42;;;;;;;4.70;3.25;;;;;;;2.26;55.45;98160.91;5028911;28;20064;-63
2022/02/09 11:04:09;;;;;;;4.93;2.95;;;;;;;2.42;55.74;98163.97;5029883;28;20045;-61
2022/02/09 11:06:40;;;;;;;4.93;2.70;;;;;;;2.57;54.73;98161.81;5033596;28;20247;-62
2022/02/09 11:09:08;;;;;;;5.13;2.70;;;;;;;2.58;54.41;98162.63;4996632;28;20047;-63
2022/02/09 11:11:39;;;;;;;5.63;3.13;;;;;;;2.46;55.10;98157.28;5032275;28;20095;-63
2022/02/09 11:14:09;;;;;;;5.72;2.90;;;;;;;2.46;55.76;98162.53;5050310;28;20128;-62
2022/02/09 11:16:36;;;;;;;4.18;2.85;;;;;;;2.37;55.62;98155.97;5032055;28;20053;-62
2022/02/09 11:19:02;;;;;;;4.50;3.20;;;;;;;2.45;55.63;98156.50;5032847;28;20045;-62
2022/02/09 11:21:31;;;;;;;4.43;2.78;;;;;;;2.48;54.94;98147.44;5047579;28;20461;-61
2022/02/09 11:24:00;;;;;;;4.10;2.47;;;;;;;2.41;54.83;98154.50;5049790;28;20076;-64
2022/02/09 11:26:47;;;;;;;6.38;3.13;;;;;;;2.45;55.29;98153.88;5051408;28;20068;-63
2022/02/09 11:43:25;;;;;;;5.80;3.38;;;;;;;2.92;54.21;98154.22;5040508;28;20045;-64
2022/02/09 12:00:04;;;;;;;5.03;3.40;;;;;;;3.10;54.90;98173.56;5047488;28;20037;-63
2022/02/09 12:11:33;;;;;;;6.78;3.55;;;;;;;3.14;54.41;98185.19;5021021;28;20522;-62
2022/02/09 12:19:24;;;;;;;8.65;3.67;;;;;;;3.02;54.89;98185.13;5030431;28;20558;-62
2022/02/09 12:24:32;;;;;;;4.00;2.90;;;;;;;2.88;55.45;98189.72;4994067;28;20040;-61
2022/02/09 12:27:00;;;;;;;6.22;3.65;;;;;;;2.90;55.93;98177.19;5028867;28;20170;-63
2022/02/09 12:29:38;;;;;;;6.72;3.72;;;;;;;2.84;55.84;98178.06;5033128;28;20040;-61
2022/02/09 12:32:16;;;;;;;8.15;3.90;;;;;;;2.70;56.06;98180.00;5026565;28;20484;-64
2022/02/09 12:34:44;;;;;;;9.20;3.85;;;;;;;2.60;55.93;98186.75;5028395;28;20037;-61
2022/02/09 12:37:14;;;;;;;4.85;3.50;;;;;;;2.41;56.98;98186.72;5028072;28;20414;-61
2022/02/09 12:39:56;;;;;;;6.05;4.00;;;;;;;2.35;57.56;98191.97;5027764;28;20132;-62
2022/02/09 12:42:28;;;;;;;9.60;3.75;;;;;;;2.38;57.32;98186.31;5029560;28;20478;-59
2022/02/09 12:45:14;;;;;;;5.97;3.72;;;;;;;2.35;57.06;98184.94;5025420;28;20052;-61
2022/02/09 12:47:43;;;;;;;6.75;4.18;;;;;;;2.46;57.62;98183.44;5032732;28;20041;-62
2022/02/09 12:50:19;;;;;;;7.47;3.58;;;;;;;2.49;57.04;98180.41;5027179;28;20124;-62
2022/02/09 12:52:46;;;;;;;8.82;5.03;;;;;;;2.54;57.31;98201.50;5027630;28;20060;-61
2022/02/09 12:55:13;;;;;;;6.28;4.13;;;;;;;2.66;57.19;98196.38;5027067;28;20496;-62
2022/02/09 12:57:52;;;;;;;5.95;4.03;;;;;;;2.75;56.55;98199.50;5027077;28;20100;-62
2022/02/09 13:00:29;;;;;;;8.00;3.92;;;;;;;2.79;56.67;98198.84;5040680;28;20048;-63
2022/02/09 13:02:57;;;;;;;6.65;3.42;;;;;;;2.81;56.33;98206.50;5028654;28;20158;-62
2022/02/09 13:05:24;;;;;;;8.48;3.78;;;;;;;2.55;56.85;98205.69;5032521;28;20041;-62
2022/02/09 13:07:57;;;;;;;5.65;3.65;;;;;;;2.55;57.05;98202.28;5025205;28;20049;-62
2022/02/09 13:10:31;;;;;;;6.20;4.03;;;;;;;2.61;56.79;98193.59;5025549;28;20061;-62
2022/02/09 13:13:05;;;;;;;4.90;3.53;;;;;;;2.63;56.75;98202.03;5028641;28;20040;-64
2022/02/09 13:15:38;;;;;;;7.45;4.22;;;;;;;2.68;57.05;98208.22;5025892;28;20064;-64
2022/02/09 14:10:38;;;;;;;6.95;4.07;;;;;;;2.29;58.37;98206.72;5026226;28;20037;-62
2022/02/09 14:15:50;;;;;;;5.88;3.63;;;;;;;2.29;59.08;98206.72;5025850;28;20562;-62
2022/02/09 14:31:33;;;;;;;5.93;4.20;;;;;;;2.32;59.28;98221.97;5044790;28;20171;-60
2022/02/09 14:56:21;;;;;;;9.10;4.93;;;;;;;2.19;61.22;98238.56;5050042;28;20037;-62
2022/02/09 14:58:58;;;;;;;8.43;4.70;;;;;;;2.20;61.78;98232.31;5002416;28;20091;-62
2022/02/09 15:01:38;;;;;;;11.77;6.47;;;;;;;2.24;61.33;98228.28;5050342;28;20549;-61
2022/02/09 15:04:21;;;;;;;11.40;6.18;;;;;;;2.20;61.30;98228.91;5050346;28;20048;-60
2022/02/09 15:12:02;;;;;;;10.57;6.75;;;;;;;2.11;62.97;98238.81;5048193;28;20045;-62
2022/02/09 15:19:37;;;;;;;11.05;6.85;;;;;;;2.24;63.01;98241.34;5050216;28;20075;-62
2022/02/09 15:24:38;;;;;;;13.10;7.15;;;;;;;2.17;63.42;98234.56;5050382;28;20033;-63
2022/02/09 15:27:05;;;;;;;13.10;7.70;;;;;;;1.97;63.63;98238.09;5035590;28;20044;-61
2022/02/09 15:29:32;;;;;;;18.67;7.68;;;;;;;1.97;64.60;98245.13;5049884;28;20509;-62
2022/02/09 15:32:02;;;;;;;11.13;6.78;;;;;;;2.04;64.90;98246.69;5049263;28;20445;-62
2022/02/09 15:34:32;;;;;;;11.98;7.30;;;;;;;2.15;64.41;98240.00;5052142;28;20084;-62
2022/02/09 15:37:19;;;;;;;10.43;6.78;;;;;;;2.16;64.56;98244.22;5048521;28;20231;-61
2022/02/09 15:39:48;;;;;;;17.77;6.78;;;;;;;2.18;64.19;98238.78;5049395;28;20048;-62
2022/02/09 15:42:33;;;;;;;12.82;6.65;;;;;;;2.18;64.86;98244.81;5051259;28;20122;-61
2022/02/09 16:22:45;;;;;;;9.57;5.85;;;;;;;1.94;66.29;98259.44;5040490;28;20060;-63
2022/02/09 16:25:31;;;;;;;9.55;5.45;;;;;;;1.88;66.69;98259.44;5049076;28;20045;-64
2022/02/09 16:46:51;;;;;;;10.90;6.57;;;;;;;1.54;68.44;98251.75;5025127;28;20045;-61
2022/02/09 16:50:07;;;;;;;12.43;6.85;;;;;;;1.63;68.49;98265.41;5044135;28;20060;-61
2022/02/09 16:52:31;;;;;;;15.50;7.90;;;;;;;1.64;68.54;98268.81;5034924;28;20473;-61
2022/02/09 17:08:39;;;;;;;11.25;6.78;;;;;;;1.91;67.35;98274.72;5047413;28;20052;-62
2022/02/09 17:15:33;;;;;;;9.07;6.05;;;;;;;1.87;68.34;98263.88;5035345;28;20052;-61
2022/02/09 17:19:34;;;;;;;9.40;5.28;;;;;;;1.63;68.16;98257.56;5027038;28;20049;-63
2022/02/09 17:22:00;;;;;;;9.32;5.03;;;;;;;1.57;68.63;98253.97;5027490;28;20132;-63
2022/02/09 17:24:26;;;;;;;10.88;5.72;;;;;;;1.62;68.42;98257.75;5026946;28;20140;-63
2022/02/09 17:26:53;;;;;;;10.07;5.05;;;;;;;1.63;67.95;98257.56;5026995;28;20041;-63
2022/02/09 17:29:24;;;;;;;8.13;5.13;;;;;;;1.74;67.89;98256.13;5027487;28;20057;-64
2022/02/09 17:53:31;;;;;;;8.38;5.25;;;;;;;1.77;68.27;98258.31;5026919;28;20052;-63
2022/02/09 17:56:22;;;;;;;11.50;6.10;;;;;;;1.69;68.31;98250.72;5034162;28;20056;-61
2022/02/09 17:58:50;;;;;;;9.27;5.10;;;;;;;1.73;68.40;98250.06;5039134;28;20041;-62
2022/02/09 18:01:18;;;;;;;9.23;5.18;;;;;;;1.80;68.03;98256.06;5041472;28;20907;-62
2022/02/09 18:03:45;;;;;;;9.38;5.25;;;;;;;1.79;67.93;98258.88;5045258;28;20056;-62
2022/02/09 18:09:06;;;;;;;9.80;5.70;;;;;;;1.85;68.11;98262.47;5030143;28;20042;-63
2022/02/09 18:28:02;;;;;;;11.75;5.55;;;;;;;1.73;69.00;98265.75;5050268;28;20048;-62
2022/02/09 18:33:24;;;;;;;9.40;5.10;;;;;;;1.79;69.04;98267.56;5034601;28;20033;-63
2022/02/09 18:44:22;;;;;;;9.70;5.75;;;;;;;1.85;68.83;98265.09;5036115;28;20052;-59
2022/02/09 18:47:15;;;;;;;9.10;5.60;;;;;;;1.84;68.90;98260.88;5037049;28;20131;-61
2022/02/09 19:03:25;;;;;;;9.32;5.32;;;;;;;1.91;68.45;98275.53;5054064;28;20080;-61
2022/02/09 19:05:51;;;;;;;8.48;5.72;;;;;;;1.95;68.25;98270.69;5024316;28;20041;-61
2022/02/09 19:08:33;;;;;;;11.05;5.50;;;;;;;1.95;68.21;98279.31;5033715;28;20049;-61
2022/02/09 19:16:47;;;;;;;9.00;5.25;;;;;;;2.04;67.90;98270.22;5051733;28;20412;-62
2022/02/09 19:30:41;;;;;;;13.25;5.78;;;;;;;1.93;68.19;98268.28;5052940;28;20045;-63
2022/02/09 19:49:39;;;;;;;7.90;5.13;;;;;;;2.05;67.58;98268.41;5032817;28;20034;-63
2022/02/09 19:52:10;;;;;;;9.63;5.65;;;;;;;1.99;67.84;98272.66;5029453;28;20132;-62
2022/02/09 19:57:21;;;;;;;9.00;6.32;;;;;;;1.97;67.98;98259.03;5041563;28;20056;-61
2022/02/09 19:59:48;;;;;;;10.25;5.95;;;;;;;1.95;68.37;98268.88;5047439;28;20033;-60
2022/02/09 20:02:16;;;;;;;8.65;5.20;;;;;;;1.99;68.28;98266.63;5033714;28;20415;-62
2022/02/09 20:04:43;;;;;;;7.47;5.05;;;;;;;1.91;67.86;98267.69;5048237;28;20060;-61
2022/02/09 20:07:09;;;;;;;9.52;5.57;;;;;;;1.93;68.41;98264.84;5047951;28;20128;-61
2022/02/09 20:09:34;;;;;;;8.70;5.43;;;;;;;1.99;68.15;98261.41;5049275;28;20123;-61
2022/02/09 20:12:00;;;;;;;11.13;6.15;;;;;;;1.88;68.42;98264.69;5051684;28;20052;-64
2022/02/09 20:14:27;;;;;;;8.88;5.25;;;;;;;1.83;68.46;98259.28;5050603;28;20032;-63
2022/02/09 20:16:52;;;;;;;8.98;5.60;;;;;;;1.83;68.54;98265.31;5050461;28;20040;-62
2022/02/09 20:19:18;;;;;;;10.65;5.55;;;;;;;1.86;68.74;98262.28;5025835;28;20038;-63
2022/02/09 20:21:44;;;;;;;11.75;7.28;;;;;;;1.87;68.49;98266.50;5012953;28;20042;-64
2022/02/09 20:24:14;;;;;;;12.00;7.03;;;;;;;1.85;68.25;98265.09;5029247;28;20045;-62
2022/02/09 20:26:40;;;;;;;9.40;5.55;;;;;;;1.83;68.60;98257.47;5031704;28;20183;-62
2022/02/09 20:29:12;;;;;;;13.43;7.00;;;;;;;1.80;68.19;98253.47;5034820;28;20084;-62
2022/02/09 20:31:48;;;;;;;11.25;6.95;;;;;;;1.78;68.33;98259.91;5033809;28;20037;-61
2022/02/09 20:34:24;;;;;;;12.02;6.55;;;;;;;1.77;68.70;98259.09;5032075;28;20163;-60
2022/02/09 20:36:50;;;;;;;11.35;6.82;;;;;;;1.71;68.64;98249.50;5016250;28;20414;-61
2022/02/09 20:39:21;;;;;;;7.82;5.82;;;;;;;1.72;69.18;98258.13;5032172;28;20041;-62
2022/02/09 20:41:48;;;;;;;8.52;5.63;;;;;;;1.67;69.00;98257.94;5032911;28;20067;-61
2022/02/09 20:44:23;;;;;;;8.50;5.18;;;;;;;1.64;68.96;98260.97;5032369;28;20064;-62
2022/02/09 20:46:49;;;;;;;9.88;6.07;;;;;;;1.63;69.20;98252.34;5032284;28;20040;-63
2022/02/09 20:49:15;;;;;;;9.20;5.72;;;;;;;1.63;68.96;98257.56;5032359;28;20038;-62
2022/02/09 20:51:41;;;;;;;8.52;5.65;;;;;;;1.62;68.97;98253.34;5032208;28;20045;-62
2022/02/09 20:54:06;;;;;;;7.63;4.88;;;;;;;1.58;69.08;98254.75;5031942;28;20124;-62
2022/02/09 20:56:33;;;;;;;10.35;5.90;;;;;;;1.54;69.16;98257.00;5014340;28;20041;-62
2022/02/09 20:59:03;;;;;;;8.13;5.47;;;;;;;1.53;69.35;98255.41;5014483;28;20515;-62
2022/02/09 21:01:58;;;;;;;9.60;5.63;;;;;;;1.49;69.65;98256.00;5031922;28;20053;-63
2022/02/09 21:04:18;;;;;;;8.60;5.15;;;;;;;1.46;69.61;98251.19;5029939;28;20052;-61
2022/02/09 22:21:08;;;;;;;6.15;3.78;;;;;;;1.11;69.69;98235.81;5049426;28;20049;-62
2022/02/09 22:26:40;;;;;;;6.68;4.07;;;;;;;0.99;70.41;98240.06;5049912;28;20237;-62
2022/02/09 22:55:32;;;;;;;7.40;3.85;;;;;;;1.07;68.71;98227.59;5034663;28;20038;-61
2022/02/09 22:58:04;;;;;;;4.93;3.40;;;;;;;0.97;69.04;98224.63;5033192;28;20525;-61
2022/02/09 23:03:22;;;;;;;4.50;3.00;;;;;;;1.13;67.65;98224.19;5034193;28;20049;-62
2022/02/09 23:24:24;;;;;;;5.03;2.33;;;;;;;1.08;66.95;98220.56;5033699;28;20521;-62
